Time;durP1;ratioP1;P1;durP2;ratioP2;P2;SDS_P1;SDS_P2;PMS_P1;PMS_P2;Temp;Humidity;BMP_temperature;BMP_pressure;BME280_temperature;BME280_humidity;BME280_pressure;Samples;Min_cycle;Max_cycle;Signal;HPM_P1;HPM_P2
2021/05/12 00:00:33;;;;;;;24.55;16.40;;;;;;;10.48;89.89;100378.44;5001991;28;20462;-91
2021/05/12 00:02:59;;;;;;;18.90;15.05;;;;;;;10.53;89.07;100387.13;4983424;28;20072;-91
2021/05/12 00:05:26;;;;;;;17.90;13.63;;;;;;;10.73;87.94;100381.72;5014294;28;20398;-91
2021/05/12 00:07:52;;;;;;;22.15;15.55;;;;;;;10.66;88.35;100373.06;5016884;28;20049;-91
2021/05/12 00:10:19;;;;;;;20.00;16.27;;;;;;;10.54;88.82;100384.50;5000013;28;20041;-91
2021/05/12 00:12:46;;;;;;;21.52;16.08;;;;;;;10.40;89.94;100409.91;4995792;28;20559;-91
2021/05/12 00:15:15;;;;;;;19.88;15.02;;;;;;;10.80;87.54;100374.66;5002677;28;20045;-91
2021/05/12 00:17:43;;;;;;;17.02;13.57;;;;;;;10.82;86.47;100418.22;4974576;28;20082;-91
2021/05/12 00:20:10;;;;;;;22.65;16.90;;;;;;;10.56;88.11;100372.28;4999152;28;20132;-91
2021/05/12 00:25:14;;;;;;;21.02;14.85;;;;;;;10.54;88.38;100379.25;4999467;28;20043;-91
2021/05/12 00:27:40;;;;;;;23.02;16.05;;;;;;;10.48;89.01;100374.09;4982330;28;20037;-90
2021/05/12 00:30:12;;;;;;;21.52;15.93;;;;;;;10.47;88.50;100406.34;5000625;28;20461;-91
2021/05/12 00:32:40;;;;;;;24.25;17.05;;;;;;;10.31;88.78;100399.47;4996358;28;20131;-91
2021/05/12 00:35:08;;;;;;;20.75;15.38;;;;;;;10.52;87.19;100428.09;4984040;28;20461;-91
2021/05/12 00:37:34;;;;;;;24.33;16.45;;;;;;;10.39;88.44;100421.22;4974133;28;20068;-91
2021/05/12 00:40:00;;;;;;;21.75;16.75;;;;;;;10.36;88.34;100398.59;4990235;28;20127;-91
2021/05/12 00:42:29;;;;;;;21.85;17.83;;;;;;;10.23;88.94;100386.47;4988535;28;20041;-91
2021/05/12 00:44:56;;;;;;;25.00;16.80;;;;;;;10.49;87.11;100393.25;4998261;28;20068;-91
2021/05/12 00:47:29;;;;;;;21.85;14.93;;;;;;;10.35;87.88;100435.19;4984451;28;20094;-91
2021/05/12 00:49:55;;;;;;;22.05;16.67;;;;;;;10.52;86.78;100432.44;5001455;28;20943;-91
2021/05/12 00:52:22;;;;;;;21.17;15.75;;;;;;;10.62;86.97;100414.91;4999467;28;20120;-91
2021/05/12 00:54:48;;;;;;;21.55;16.30;;;;;;;10.37;87.85;100430.78;5012832;28;20088;-91
2021/05/12 00:57:15;;;;;;;21.77;16.60;;;;;;;10.25;88.15;100399.53;4990117;28;20029;-91
2021/05/12 00:59:43;;;;;;;20.05;15.98;;;;;;;10.34;87.66;100412.50;4996894;28;20576;-91
2021/05/12 01:02:09;;;;;;;21.33;15.88;;;;;;;10.47;86.63;100395.03;4995655;28;20041;-91
2021/05/12 01:04:36;;;;;;;23.35;15.23;;;;;;;10.27;87.42;100421.28;5000130;28;20506;-91
2021/05/12 01:07:03;;;;;;;21.48;15.70;;;;;;;10.27;87.56;100405.59;4985071;28;20045;-91
2021/05/12 01:09:28;;;;;;;19.02;14.57;;;;;;;10.27;87.09;100427.34;4990723;28;20044;-91
2021/05/12 01:11:54;;;;;;;20.25;14.85;;;;;;;10.22;86.80;100396.06;4986902;28;20139;-91
2021/05/12 01:14:20;;;;;;;18.10;14.20;;;;;;;10.27;86.41;100395.16;4987699;28;20051;-91
2021/05/12 01:16:47;;;;;;;19.17;14.10;;;;;;;10.28;86.63;100415.19;4988713;28;20085;-91
2021/05/12 01:19:14;;;;;;;18.20;13.93;;;;;;;10.21;86.55;100427.41;5002184;28;20044;-91
2021/05/12 01:21:41;;;;;;;21.23;14.82;;;;;;;10.04;87.74;100401.41;4998435;28;20175;-91
2021/05/12 01:24:08;;;;;;;17.55;14.20;;;;;;;10.01;87.22;100396.19;4988616;28;20093;-91
2021/05/12 01:26:34;;;;;;;20.42;15.75;;;;;;;9.99;87.46;100409.25;5019017;28;20049;-91
2021/05/12 01:29:00;;;;;;;19.13;15.05;;;;;;;10.12;86.76;100399.63;4989522;28;20036;-91
2021/05/12 01:31:44;;;;;;;17.33;13.88;;;;;;;10.00;87.64;100408.41;5005819;28;20128;-91
2021/05/12 01:34:16;;;;;;;16.80;13.85;;;;;;;10.20;85.46;100403.06;5003820;28;20041;-91
2021/05/12 01:36:42;;;;;;;21.42;15.25;;;;;;;10.05;87.39;100416.19;5001923;28;20500;-91
2021/05/12 01:39:09;;;;;;;17.63;13.85;;;;;;;10.00;86.67;100415.38;5007490;28;20067;-91
2021/05/12 01:41:35;;;;;;;20.75;15.75;;;;;;;9.98;87.63;100424.94;4987874;28;20490;-92
2021/05/12 01:44:05;;;;;;;21.27;16.88;;;;;;;9.88;87.96;100413.69;5016325;28;20456;-91
2021/05/12 01:46:31;;;;;;;23.77;16.75;;;;;;;9.74;89.08;100416.38;5003149;28;20415;-91
2021/05/12 01:48:57;;;;;;;20.63;15.90;;;;;;;9.91;87.89;100415.41;5004324;28;21003;-91
2021/05/12 01:51:32;;;;;;;24.20;16.40;;;;;;;9.86;88.20;100437.19;5009704;28;20527;-91
2021/05/12 01:53:57;;;;;;;21.27;16.83;;;;;;;9.76;88.59;100435.53;4985480;28;20099;-91
2021/05/12 01:56:23;;;;;;;21.55;16.35;;;;;;;9.75;88.84;100436.41;5010440;28;20081;-91
2021/05/12 01:58:49;;;;;;;25.08;17.52;;;;;;;9.62;89.71;100409.50;5019339;28;20614;-91
2021/05/12 02:01:15;;;;;;;24.80;16.98;;;;;;;9.65;89.46;100460.78;4986591;28;20155;-91
2021/05/12 02:03:41;;;;;;;22.02;17.60;;;;;;;9.64;88.83;100453.84;5021000;28;20035;-91
2021/05/12 02:06:07;;;;;;;23.85;18.10;;;;;;;9.68;89.22;100426.88;4993386;28;20028;-91
2021/05/12 02:08:33;;;;;;;26.17;18.77;;;;;;;9.67;89.80;100430.34;5002963;28;20551;-91
2021/05/12 02:11:03;;;;;;;23.60;18.88;;;;;;;9.66;90.18;100433.81;4983799;28;20095;-91
2021/05/12 02:13:31;;;;;;;28.70;19.60;;;;;;;9.62;90.75;100432.09;5001902;28;20049;-91
2021/05/12 02:15:59;;;;;;;24.08;18.33;;;;;;;9.64;90.21;100432.97;5017397;28;20060;-91
2021/05/12 02:18:25;;;;;;;28.75;19.35;;;;;;;9.64;90.76;100438.19;5012149;28;20477;-91
2021/05/12 02:20:51;;;;;;;25.70;18.92;;;;;;;9.62;90.92;100424.28;4986502;28;20493;-91
2021/05/12 02:23:19;;;;;;;26.63;19.10;;;;;;;9.55;90.98;100449.53;4984087;28;20508;-91
2021/05/12 02:25:44;;;;;;;23.35;17.95;;;;;;;9.52;90.31;100455.63;4994588;28;20083;-91
2021/05/12 02:28:12;;;;;;;23.50;17.48;;;;;;;9.56;89.99;100447.81;4995511;28;20774;-91
2021/05/12 02:30:39;;;;;;;28.55;18.20;;;;;;;9.48;90.86;100443.44;4990185;28;20041;-91
2021/05/12 02:33:06;;;;;;;24.05;19.10;;;;;;;9.47;90.64;100436.53;5002060;28;22023;-91
2021/05/12 02:35:32;;;;;;;25.50;18.05;;;;;;;9.48;90.84;100437.38;5001863;28;20043;-91
2021/05/12 02:37:57;;;;;;;26.13;18.85;;;;;;;9.45;91.49;100426.97;5003354;28;20041;-91
2021/05/12 02:40:24;;;;;;;24.88;18.10;;;;;;;9.43;91.42;100423.47;5001877;28;20049;-91
2021/05/12 02:42:52;;;;;;;25.42;18.83;;;;;;;9.34;91.50;100413.94;5003304;28;20112;-91
2021/05/12 02:45:19;;;;;;;25.77;18.37;;;;;;;9.38;91.17;100415.69;4989146;28;20090;-91
2021/05/12 02:47:57;;;;;;;24.13;16.70;;;;;;;9.48;90.11;100414.75;4999175;28;20029;-91
2021/05/12 02:50:37;;;;;;;22.35;16.75;;;;;;;9.61;89.81;100418.19;4986981;28;20078;-91
2021/05/12 02:53:05;;;;;;;25.67;18.60;;;;;;;9.61;90.08;100422.53;5002867;28;20413;-91
2021/05/12 02:55:32;;;;;;;25.75;18.25;;;;;;;9.54;90.35;100430.41;5002481;28;20056;-91
2021/05/12 02:57:58;;;;;;;24.63;18.13;;;;;;;9.52;90.18;100459.97;5001113;28;20052;-91
2021/05/12 03:00:38;;;;;;;22.65;18.27;;;;;;;9.44;90.55;100425.22;4991602;28;21588;-91
2021/05/12 03:03:08;;;;;;;26.92;18.48;;;;;;;9.40;91.47;100433.94;5019733;28;20581;-91
2021/05/12 03:05:34;;;;;;;25.15;18.75;;;;;;;9.44;91.09;100425.22;4999800;28;20124;-91
2021/05/12 03:08:00;;;;;;;23.48;18.48;;;;;;;9.35;91.14;100447.00;5001521;28;20044;-91
2021/05/12 03:10:32;;;;;;;26.92;19.15;;;;;;;9.31;91.33;100453.09;4986760;28;20053;-90
2021/05/12 03:13:02;;;;;;;25.48;18.00;;;;;;;9.32;91.46;100457.44;5014627;28;20060;-91
2021/05/12 03:15:30;;;;;;;28.23;19.48;;;;;;;9.31;91.21;100432.22;4989715;28;20041;-91
2021/05/12 03:17:56;;;;;;;22.15;17.02;;;;;;;9.46;90.35;100428.72;4999954;28;20053;-91
2021/05/12 03:20:25;;;;;;;24.83;18.30;;;;;;;9.42;90.39;100427.84;5000592;28;20534;-91
2021/05/12 03:23:00;;;;;;;25.25;19.15;;;;;;;9.39;90.91;100453.94;5017304;28;20142;-91
2021/05/12 03:25:26;;;;;;;28.83;19.27;;;;;;;9.42;91.01;100435.66;5003355;28;20045;-91
2021/05/12 03:27:53;;;;;;;27.33;18.15;;;;;;;9.34;91.66;100430.47;4984425;28;20363;-91
2021/05/12 03:30:23;;;;;;;24.42;18.90;;;;;;;9.34;90.96;100455.69;5023299;28;20116;-91
2021/05/12 03:32:54;;;;;;;26.98;19.48;;;;;;;9.36;91.31;100464.41;5015613;28;20064;-91
2021/05/12 03:35:20;;;;;;;24.77;18.95;;;;;;;9.40;90.56;100424.38;4981899;28;20536;-91
2021/05/12 03:37:49;;;;;;;26.13;18.95;;;;;;;9.40;91.39;100462.63;4985500;28;20041;-91
2021/05/12 03:40:16;;;;;;;25.67;19.55;;;;;;;9.34;91.03;100453.09;5000544;28;20044;-91
2021/05/12 03:42:42;;;;;;;26.30;19.00;;;;;;;9.28;91.19;100450.50;4999972;28;20049;-91
2021/05/12 03:45:09;;;;;;;27.02;19.38;;;;;;;9.27;91.63;100447.00;5002706;28;20086;-90
2021/05/12 03:47:35;;;;;;;27.50;19.52;;;;;;;9.21;91.54;100439.22;5001509;28;20049;-91
2021/05/12 03:50:03;;;;;;;25.17;18.58;;;;;;;9.19;91.34;100428.78;5000393;28;20051;-91
2021/05/12 03:52:29;;;;;;;26.75;18.52;;;;;;;9.19;91.44;100441.84;4985614;28;20052;-91
2021/05/12 03:54:55;;;;;;;26.13;19.60;;;;;;;9.23;91.48;100426.16;4988433;28;20636;-91
2021/05/12 03:57:21;;;;;;;26.85;18.90;;;;;;;9.25;90.93;100461.81;4987482;28;20040;-91
2021/05/12 03:59:47;;;;;;;25.15;18.98;;;;;;;9.21;91.38;100465.31;5000897;28;20060;-91
2021/05/12 04:02:15;;;;;;;27.70;19.08;;;;;;;9.20;91.54;100443.53;4995684;28;20475;-91
2021/05/12 04:04:48;;;;;;;30.30;19.95;;;;;;;9.14;91.65;100430.53;4917514;28;20961;-91
2021/05/12 04:07:14;;;;;;;26.15;18.60;;;;;;;9.20;91.63;100435.72;5025199;28;20040;-50
2021/05/12 04:09:40;;;;;;;24.98;19.02;;;;;;;9.20;92.06;100433.13;5027654;28;20032;-54
2021/05/12 04:12:05;;;;;;;28.60;20.85;;;;;;;9.13;91.75;100435.75;5028676;28;20503;-53
2021/05/12 04:14:31;;;;;;;29.00;20.55;;;;;;;9.13;91.53;100434.00;5009546;28;20101;-54
2021/05/12 04:16:57;;;;;;;33.50;20.73;;;;;;;9.14;91.87;100438.38;5032402;28;20041;-53
2021/05/12 04:19:23;;;;;;;30.27;20.52;;;;;;;9.18;91.71;100447.06;5025379;28;20041;-51
2021/05/12 04:21:51;;;;;;;27.95;20.48;;;;;;;9.14;91.81;100442.72;5026542;28;20059;-51
2021/05/12 04:24:18;;;;;;;28.65;19.50;;;;;;;9.14;91.70;100447.94;5012062;28;20055;-53
2021/05/12 04:26:43;;;;;;;33.38;21.15;;;;;;;9.15;92.21;100449.66;5026424;28;20036;-52
2021/05/12 04:29:09;;;;;;;33.17;21.08;;;;;;;9.19;91.68;100452.25;5025189;28;20128;-51
2021/05/12 04:31:35;;;;;;;31.77;22.08;;;;;;;9.17;92.36;100454.00;5023739;28;20457;-52
2021/05/12 04:34:02;;;;;;;34.33;21.25;;;;;;;9.20;91.11;100453.13;5022777;28;20102;-51
2021/05/12 04:36:28;;;;;;;28.75;20.10;;;;;;;9.24;91.48;100452.25;5005025;28;20112;-50
2021/05/12 04:38:53;;;;;;;30.85;20.73;;;;;;;9.24;91.63;100449.63;5025291;28;20095;-53
2021/05/12 04:41:19;;;;;;;26.55;19.63;;;;;;;9.38;90.39;100449.59;5032087;28;20040;-50
2021/05/12 04:43:48;;;;;;;27.88;19.20;;;;;;;9.38;90.66;100452.19;4974254;28;20064;-52
2021/05/12 04:46:14;;;;;;;;;;;;;;;9.40;91.27;100454.81;4993499;28;20060;-51
2021/05/12 04:48:39;;;;;;;24.75;17.63;;;;;;;9.41;90.44;100454.78;5010665;28;20062;-51
2021/05/12 04:51:08;;;;;;;28.73;20.48;;;;;;;9.44;91.55;100460.03;5008878;28;20041;-53
2021/05/12 04:53:33;;;;;;;31.45;21.15;;;;;;;9.42;91.58;100448.72;5009226;28;20166;-52
2021/05/12 04:55:59;;;;;;;31.17;21.67;;;;;;;9.47;90.72;100446.97;4996612;28;20137;-51
2021/05/12 04:58:26;;;;;;;30.45;21.05;;;;;;;9.48;91.33;100440.84;4999316;28;20050;-52
2021/05/12 05:00:52;;;;;;;22.70;17.02;;;;;;;9.52;89.65;100439.97;5005668;28;20052;-53
2021/05/12 05:03:19;;;;;;;26.92;20.33;;;;;;;9.76;89.01;100447.69;5007951;28;20041;-53
2021/05/12 05:05:45;;;;;;;28.75;20.20;;;;;;;9.70;90.46;100448.59;5002015;28;20041;-52
2021/05/12 05:08:11;;;;;;;29.88;21.02;;;;;;;9.68;90.57;100450.34;5008677;28;20041;-50
2021/05/12 05:10:36;;;;;;;29.60;20.70;;;;;;;9.69;91.36;100452.97;5009996;28;20126;-53
2021/05/12 05:13:03;;;;;;;27.92;19.58;;;;;;;9.69;91.25;100445.13;5018633;28;20130;-52
2021/05/12 05:15:29;;;;;;;30.27;20.83;;;;;;;9.77;91.02;100449.44;5028189;28;20108;-51
2021/05/12 05:17:57;;;;;;;25.92;19.65;;;;;;;9.78;91.23;100454.66;5028387;28;20552;-53
2021/05/12 05:20:24;;;;;;;30.65;20.33;;;;;;;9.80;91.79;100442.47;5030712;28;20413;-52
2021/05/12 05:22:51;;;;;;;25.95;20.13;;;;;;;9.82;91.72;100451.16;5026594;28;20056;-51
2021/05/12 05:25:16;;;;;;;28.75;20.38;;;;;;;9.91;90.11;100463.28;5002884;28;20045;-53
2021/05/12 05:27:43;;;;;;;27.85;20.27;;;;;;;9.96;91.02;100458.06;5020550;28;20041;-53
2021/05/12 05:30:10;;;;;;;27.52;19.20;;;;;;;10.04;91.67;100459.72;5011096;28;20100;-53
2021/05/12 05:33:00;;;;;;;25.23;19.00;;;;;;;10.06;91.54;100459.72;5023245;28;20128;-51
2021/05/12 05:35:44;;;;;;;26.10;18.02;;;;;;;10.06;90.76;100470.16;5023377;28;20036;-53
2021/05/12 05:38:29;;;;;;;21.17;16.25;;;;;;;10.11;89.49;100473.63;5008055;28;20040;-50
2021/05/12 05:41:13;;;;;;;26.42;18.75;;;;;;;10.25;87.45;100483.13;5018194;28;20095;-49
2021/05/12 05:43:58;;;;;;;26.95;20.00;;;;;;;10.27;89.69;100470.91;5014108;28;20064;-52
2021/05/12 05:46:42;;;;;;;30.58;20.38;;;;;;;10.32;90.49;100479.59;5006070;28;20064;-53
2021/05/12 05:49:27;;;;;;;29.25;18.63;;;;;;;10.37;90.24;100481.34;5006071;28;20049;-49
2021/05/12 05:52:11;;;;;;;24.02;18.52;;;;;;;10.43;90.30;100479.56;5008921;28;20286;-51
2021/05/12 05:54:56;;;;;;;30.20;19.17;;;;;;;10.42;90.53;100477.81;5019187;28;20120;-51
2021/05/12 05:57:41;;;;;;;27.40;18.33;;;;;;;10.51;88.86;100477.75;5016079;28;20033;-49
2021/05/12 06:00:27;;;;;;;24.70;18.65;;;;;;;10.63;89.39;100479.41;5033178;28;20094;-52
2021/05/12 06:02:53;;;;;;;25.50;17.40;;;;;;;10.53;89.17;100479.47;5023887;28;20337;-51
2021/05/12 06:05:45;;;;;;;24.77;18.10;;;;;;;10.49;89.67;100479.50;5028389;28;20055;-51
2021/05/12 06:08:30;;;;;;;25.95;18.45;;;;;;;10.66;89.09;100485.47;5027424;28;20269;-51
2021/05/12 06:11:15;;;;;;;22.08;16.63;;;;;;;10.69;89.04;100481.97;5027351;28;20071;-53
2021/05/12 06:14:00;;;;;;;23.08;17.08;;;;;;;10.63;89.38;100484.63;5025764;28;20045;-50
2021/05/12 06:16:48;;;;;;;22.75;16.60;;;;;;;10.69;88.14;100489.81;5019436;28;20046;-51
2021/05/12 06:19:33;;;;;;;23.10;16.80;;;;;;;10.59;89.40;100488.16;5003427;28;20124;-53
2021/05/12 06:22:17;;;;;;;25.63;16.13;;;;;;;10.63;88.94;100490.72;5010351;28;20048;-50
2021/05/12 06:25:03;;;;;;;23.70;17.10;;;;;;;10.64;89.86;100497.69;5025182;28;20045;-52
2021/05/12 06:27:50;;;;;;;17.42;14.40;;;;;;;10.65;86.51;100496.81;5027998;28;20062;-51
2021/05/12 06:30:36;;;;;;;20.05;15.55;;;;;;;10.84;87.73;100489.69;5017739;28;20032;-54
2021/05/12 06:33:20;;;;;;;23.73;14.48;;;;;;;10.84;86.81;100489.69;5025034;28;20049;-51
2021/05/12 06:36:06;;;;;;;19.02;14.57;;;;;;;10.97;84.87;100493.06;5023991;28;20609;-53
2021/05/12 06:38:52;;;;;;;21.60;16.02;;;;;;;10.97;87.11;100477.38;4984342;28;20053;-53
2021/05/12 06:41:17;;;;;;;18.52;13.90;;;;;;;10.99;86.75;100485.19;4989200;28;20045;-49
2021/05/12 06:43:44;;;;;;;21.60;14.00;;;;;;;11.27;83.52;100482.31;5005399;28;20088;-49
2021/05/12 06:46:10;;;;;;;22.65;15.68;;;;;;;11.32;84.81;100485.75;5002772;28;20083;-49
2021/05/12 06:48:36;;;;;;;19.33;14.57;;;;;;;11.50;84.40;100495.16;5023127;28;20033;-52
2021/05/12 06:51:03;;;;;;;17.67;14.18;;;;;;;11.44;84.06;100489.97;5007670;28;20113;-54
2021/05/12 06:53:34;;;;;;;21.60;13.68;;;;;;;11.51;83.93;100486.41;5023866;28;20048;-50
2021/05/12 06:56:03;;;;;;;16.10;11.15;;;;;;;11.30;82.74;100493.63;5006045;28;20516;-49
2021/05/12 06:58:30;;;;;;;14.55;10.80;;;;;;;11.37;82.66;100492.66;5020283;28;20050;-50
2021/05/12 07:00:55;;;;;;;14.23;10.70;;;;;;;11.38;82.85;100493.50;5001745;28;20679;-49
2021/05/12 07:03:23;;;;;;;16.15;9.40;;;;;;;11.19;83.38;100506.81;5028332;28;20349;-51
2021/05/12 07:05:53;;;;;;;13.65;9.57;;;;;;;11.29;82.40;100499.72;5021882;28;20132;-51
2021/05/12 07:08:20;;;;;;;16.00;9.43;;;;;;;11.46;84.29;100504.78;5022489;28;20040;-49
2021/05/12 07:10:45;;;;;;;15.82;9.40;;;;;;;11.32;84.20;100501.44;5007469;28;20564;-52
2021/05/12 07:13:11;;;;;;;15.18;9.68;;;;;;;11.21;83.90;100505.03;5014875;28;20099;-50
2021/05/12 07:15:37;;;;;;;14.73;9.50;;;;;;;11.45;81.10;100504.78;5003884;28;20037;-52
2021/05/12 07:18:03;;;;;;;15.88;10.45;;;;;;;11.40;82.14;100517.94;4990866;28;20520;-50
2021/05/12 07:20:29;;;;;;;13.85;8.48;;;;;;;11.29;82.60;100511.94;5026775;28;20041;-51
2021/05/12 07:23:05;;;;;;;14.60;8.23;;;;;;;11.32;82.73;100509.28;5010584;28;20499;-49
2021/05/12 07:25:32;;;;;;;12.73;7.32;;;;;;;11.40;83.90;100513.56;5012189;28;20068;-53
2021/05/12 07:27:59;;;;;;;12.93;7.82;;;;;;;11.51;81.14;100513.44;5022614;28;22556;-49
2021/05/12 07:30:25;;;;;;;11.13;8.38;;;;;;;11.73;79.28;100511.44;4989498;28;20406;-54
2021/05/12 07:32:51;;;;;;;15.77;8.13;;;;;;;11.78;80.08;100516.63;5002543;28;20132;-53
2021/05/12 07:35:18;;;;;;;11.80;7.45;;;;;;;11.77;78.35;100517.53;5021895;28;20104;-54
2021/05/12 07:37:44;;;;;;;11.88;6.65;;;;;;;11.75;79.20;100514.94;5022063;28;20124;-51
2021/05/12 07:40:10;;;;;;;10.50;5.90;;;;;;;11.74;76.70;100514.94;5019629;28;20047;-50
2021/05/12 07:42:38;;;;;;;12.00;6.22;;;;;;;11.95;77.91;100512.97;4994582;28;20037;-53
2021/05/12 07:45:05;;;;;;;10.15;6.25;;;;;;;11.80;76.51;100514.88;5024236;28;20535;-51
2021/05/12 07:47:31;;;;;;;12.68;6.55;;;;;;;11.66;76.95;100514.16;5023436;28;20073;-52
2021/05/12 07:49:57;;;;;;;10.45;6.55;;;;;;;11.68;77.16;100509.78;5024749;28;20253;-53
2021/05/12 07:52:22;;;;;;;11.00;6.65;;;;;;;11.61;77.52;100502.88;5006296;28;20156;-50
2021/05/12 07:54:48;;;;;;;11.95;6.13;;;;;;;12.27;73.95;100504.69;5008510;28;20037;-50
2021/05/12 07:57:15;;;;;;;11.13;6.35;;;;;;;12.45;72.20;100508.78;5029826;28;20179;-51
2021/05/12 07:59:41;;;;;;;9.68;7.25;;;;;;;12.31;73.78;100506.38;5027347;28;20799;-48
2021/05/12 08:02:07;;;;;;;11.35;7.25;;;;;;;12.26;74.85;100503.78;5006731;28;20406;-49
2021/05/12 08:04:34;;;;;;;11.70;7.88;;;;;;;12.42;75.07;100503.59;5024924;28;20607;-49
2021/05/12 08:07:00;;;;;;;13.57;7.70;;;;;;;12.43;74.27;100503.56;5021628;28;20048;-50
2021/05/12 08:09:26;;;;;;;12.38;7.88;;;;;;;12.43;74.25;100500.94;5007700;28;20037;-49
2021/05/12 08:11:52;;;;;;;13.52;8.05;;;;;;;12.22;74.46;100504.72;5022062;28;20044;-49
2021/05/12 08:14:18;;;;;;;11.70;7.97;;;;;;;12.57;71.75;100492.88;5022485;28;20489;-51
2021/05/12 08:16:47;;;;;;;9.30;7.70;;;;;;;12.48;73.23;100500.88;5029304;28;20057;-49
2021/05/12 08:19:13;;;;;;;;;;;;;;;12.91;70.32;100496.69;5021569;28;20049;-49
2021/05/12 08:21:40;;;;;;;9.48;7.00;;;;;;;13.02;70.38;100501.75;5022777;28;19920;-51
2021/05/12 08:24:06;;;;;;;8.98;6.50;;;;;;;12.81;72.78;100506.47;5028269;28;20029;-49
2021/05/12 08:26:33;;;;;;;10.43;7.07;;;;;;;12.75;72.46;100503.94;5023018;28;20124;-53
2021/05/12 08:29:00;;;;;;;11.57;7.05;;;;;;;12.84;72.27;100511.66;5009692;28;20139;-48
2021/05/12 08:31:27;;;;;;;9.88;7.03;;;;;;;12.59;72.50;100504.19;5008126;28;20041;-50
2021/05/12 08:33:53;;;;;;;12.05;7.35;;;;;;;12.33;72.74;100504.56;5024132;28;20040;-51
2021/05/12 08:36:20;;;;;;;10.52;6.97;;;;;;;12.72;72.52;100497.00;5004391;28;20127;-49
2021/05/12 08:38:46;;;;;;;10.20;6.90;;;;;;;12.65;73.17;100494.50;5024585;28;20037;-48
2021/05/12 08:41:17;;;;;;;10.10;6.80;;;;;;;12.61;74.47;100496.28;5008043;28;20043;-50
2021/05/12 08:43:44;;;;;;;12.40;6.90;;;;;;;12.46;75.89;100497.41;5010584;28;20076;-49
2021/05/12 08:46:14;;;;;;;10.30;6.78;;;;;;;12.41;74.01;100494.84;5023163;28;20053;-49
2021/05/12 08:48:41;;;;;;;9.98;7.53;;;;;;;12.50;74.35;100496.47;5019386;28;20032;-50
2021/05/12 08:51:10;;;;;;;12.40;7.47;;;;;;;12.58;73.30;100494.56;5006433;28;20042;-51
2021/05/12 08:53:36;;;;;;;11.93;7.32;;;;;;;12.62;73.16;100491.94;5003000;28;20553;-50
2021/05/12 08:56:03;;;;;;;10.43;7.63;;;;;;;12.78;72.94;100486.41;5000575;28;20052;-52
2021/05/12 08:58:29;;;;;;;15.73;7.70;;;;;;;12.93;73.27;100489.66;4978849;28;20076;-50
2021/05/12 09:00:55;;;;;;;11.77;7.30;;;;;;;12.81;72.31;100490.72;5004133;28;20068;-51
2021/05/12 09:03:22;;;;;;;9.70;7.13;;;;;;;13.05;70.25;100480.69;5024509;28;20528;-51
2021/05/12 09:05:48;;;;;;;11.23;8.13;;;;;;;12.87;70.78;100487.13;5027501;28;20448;-50
2021/05/12 09:08:16;;;;;;;10.25;8.20;;;;;;;13.25;72.35;100478.59;5011563;28;20552;-50
2021/05/12 09:10:42;;;;;;;9.15;6.80;;;;;;;13.27;68.81;100476.78;4993635;28;20033;-51
2021/05/12 09:13:08;;;;;;;9.93;6.65;;;;;;;12.95;67.34;100477.38;5023830;28;20045;-48
2021/05/12 09:15:34;;;;;;;11.23;7.07;;;;;;;13.15;68.20;100479.63;5020264;28;20036;-52
2021/05/12 09:18:03;;;;;;;10.70;7.45;;;;;;;13.16;71.21;100480.50;5006965;28;20052;-49
2021/05/12 09:20:39;;;;;;;10.75;8.05;;;;;;;13.09;71.32;100474.50;4989965;28;20104;-49
2021/05/12 09:23:07;;;;;;;10.70;8.20;;;;;;;12.97;68.42;100466.84;5000797;28;20053;-52
2021/05/12 09:25:34;;;;;;;9.52;8.05;;;;;;;13.41;69.26;100470.44;5009934;28;20083;-49
2021/05/12 09:28:13;;;;;;;10.90;7.80;;;;;;;13.23;69.74;100471.63;5019915;28;20051;-48
2021/05/12 09:30:45;;;;;;;9.75;6.75;;;;;;;13.26;68.30;100466.31;5020207;28;20126;-51
2021/05/12 09:33:27;;;;;;;11.57;6.63;;;;;;;13.54;68.77;100465.81;5023874;28;20037;-51
2021/05/12 09:35:53;;;;;;;11.43;7.72;;;;;;;13.58;68.67;100462.22;5022376;28;20041;-48
2021/05/12 09:38:32;;;;;;;13.05;7.60;;;;;;;13.78;68.14;100461.81;5025282;28;20119;-50
2021/05/12 09:41:08;;;;;;;10.43;6.93;;;;;;;13.77;68.41;100462.72;5024221;28;20059;-51
2021/05/12 09:43:35;;;;;;;9.90;7.22;;;;;;;14.57;66.02;100470.56;5021816;28;20042;-49
2021/05/12 09:46:23;;;;;;;11.77;7.68;;;;;;;14.94;65.81;100453.88;5024942;28;20075;-50
2021/05/12 09:49:13;;;;;;;11.27;6.97;;;;;;;15.45;61.71;100455.09;5023582;28;20041;-50
2021/05/12 09:51:46;;;;;;;11.20;7.18;;;;;;;15.06;61.22;100457.94;4985572;28;20139;-49
2021/05/12 09:54:19;;;;;;;9.48;6.40;;;;;;;14.71;63.54;100462.34;5004158;28;20494;-49
2021/05/12 09:56:56;;;;;;;8.80;6.53;;;;;;;14.39;65.76;100461.34;5017147;28;20072;-50
2021/05/12 09:59:26;;;;;;;7.72;6.13;;;;;;;14.26;66.14;100461.63;4985986;28;20041;-48
2021/05/12 10:01:59;;;;;;;10.27;6.80;;;;;;;14.29;66.04;100456.28;5023077;28;20053;-50
2021/05/12 10:04:37;;;;;;;10.00;7.40;;;;;;;14.40;65.58;100461.31;5016946;28;20041;-49
2021/05/12 10:07:20;;;;;;;9.27;6.47;;;;;;;14.62;65.68;100453.78;5003380;28;20059;-51
2021/05/12 10:09:51;;;;;;;9.20;6.22;;;;;;;14.41;63.29;100456.88;5002364;28;20041;-49
2021/05/12 10:12:29;;;;;;;9.23;6.00;;;;;;;14.31;62.64;100457.09;5012364;28;21263;-50
2021/05/12 10:14:57;;;;;;;10.80;6.05;;;;;;;14.57;60.95;100449.50;5005972;28;20068;-51
2021/05/12 10:17:25;;;;;;;10.00;6.85;;;;;;;14.94;62.82;100454.72;5022234;28;20061;-49
2021/05/12 10:19:54;;;;;;;9.50;6.28;;;;;;;14.71;60.65;100441.31;5024624;28;20075;-49
2021/05/12 10:22:20;;;;;;;;;;;;;;;15.22;60.85;100440.81;5022844;28;20387;-50
2021/05/12 10:24:48;;;;;;;11.55;7.38;;;;;;;14.96;58.12;100437.09;5022890;28;19919;-49
2021/05/12 10:27:27;;;;;;;10.55;7.38;;;;;;;14.92;59.85;100435.47;5025175;28;20058;-48
2021/05/12 10:29:56;;;;;;;10.52;7.80;;;;;;;15.06;58.68;100431.59;5025822;28;20041;-47
2021/05/12 10:32:25;;;;;;;9.45;7.53;;;;;;;15.37;57.71;100438.66;5022850;28;20642;-51
2021/05/12 10:35:00;;;;;;;9.88;8.52;;;;;;;15.15;60.91;100432.22;5024692;28;20129;-48
2021/05/12 10:37:28;;;;;;;10.80;8.98;;;;;;;15.21;60.74;100430.34;5024135;28;20609;-49
2021/05/12 10:39:59;;;;;;;;;;;;;;;15.17;63.34;100423.41;5022686;28;20453;-48
2021/05/12 10:43:24;;;;;;;10.48;8.18;;;;;;;15.59;61.15;100420.44;5025901;28;20329;-50
2021/05/12 10:45:57;;;;;;;11.05;7.43;;;;;;;15.98;56.82;100421.06;5001232;28;20374;-50
2021/05/12 10:48:30;;;;;;;9.95;7.00;;;;;;;15.75;58.87;100411.19;5021910;28;20045;-48
2021/05/12 10:50:58;;;;;;;7.43;5.13;;;;;;;15.93;53.01;100419.47;5019417;28;20110;-50
2021/05/12 10:53:30;;;;;;;8.27;4.45;;;;;;;15.72;55.51;100416.56;5023943;28;20171;-50
2021/05/12 10:55:56;;;;;;;6.93;3.70;;;;;;;15.94;53.72;100426.50;5021992;28;20547;-54
2021/05/12 10:58:24;;;;;;;7.07;4.03;;;;;;;15.49;56.62;100419.84;5020574;28;20167;-49
2021/05/12 11:01:08;;;;;;;5.88;3.90;;;;;;;15.71;52.59;100419.25;5004885;28;20094;-50
2021/05/12 11:03:55;;;;;;;5.55;4.28;;;;;;;16.04;51.94;100414.72;5003784;28;20564;-49
2021/05/12 11:06:33;;;;;;;6.80;4.35;;;;;;;15.77;54.18;100411.13;5020044;28;20715;-51
2021/05/12 11:09:08;;;;;;;8.75;5.13;;;;;;;15.76;54.35;100412.91;5023576;28;20045;-48
2021/05/12 11:11:57;;;;;;;9.63;5.55;;;;;;;15.35;55.98;100409.72;5018144;28;20507;-49
2021/05/12 11:14:27;;;;;;;8.50;4.93;;;;;;;15.33;56.39;100401.88;5018901;28;20045;-48
2021/05/12 11:17:18;;;;;;;8.68;3.80;;;;;;;15.58;52.73;100402.94;5023329;28;20037;-49
2021/05/12 11:19:45;;;;;;;6.03;4.00;;;;;;;15.78;49.99;100410.22;5022785;28;20465;-49
2021/05/12 11:25:31;;;;;;;8.18;5.82;;;;;;;15.90;56.04;100409.03;5020542;28;20049;-48
2021/05/12 11:33:32;;;;;;;5.30;2.40;;;;;;;15.55;49.11;100395.09;5022416;28;20052;-50
2021/05/12 11:36:03;;;;;;;5.07;2.90;;;;;;;15.64;51.60;100394.84;5020780;28;20095;-49
2021/05/12 11:38:30;;;;;;;8.25;3.90;;;;;;;15.96;50.55;100400.94;5003765;28;20051;-49
2021/05/12 11:40:59;;;;;;;7.70;4.35;;;;;;;15.63;47.49;100401.91;5020160;28;20037;-49